Impacts TAF Board
For situational awareness. Not to be used for flight planning purposes.
IDs:

KHBG - Hattiesburg/Chain Mu, MS, US

Issued at 0520 UTC 24 Jan 2019
Updated at 0638 UTC 24 Jan 2019
Potential Impact None Slight Moderate High
Time<<24/19Z 24/20Z 24/21Z 24/22Z 24/23Z 25/00Z 25/01Z 25/02Z 25/03Z 25/04Z 25/05Z 25/06Z 25/07Z>>
Type PRVL PRVL PRVL PRVL PRVL PRVL PRVL PRVL PRVL PRVL PRVL
VIS >6 >6 >6 >6 >6 >6 >6 >6 >6 >6 >6
CIG -- -- -- -- -- -- -- -- -- -- --
Cover SKC SKC SKC SKC SKC SKC SKC SKC SKC SKC SKC
FltCat VFR VFR VFR VFR VFR VFR VFR VFR VFR VFR VFR
WX -- -- -- -- -- -- -- -- -- -- --
WDir 330 330 330 330 330 310 310 310 310 310 310
WSpd 8 8 8 8 8 4 4 4 4 4 4
WGst -- -- -- -- -- -- -- -- -- -- --
Raw TAF
KHBG 240520Z 2406/2506 30010KT P6SM OVC010
  FM240900 32010KT P6SM BKN025
  FM241400 33008KT P6SM SKC
  FM250000 31004KT P6SM SKC


METAR Board
Radar Display
Forecast Discussion
For situational awareness. Not to be used for flight planning purposes.